Time;durP1;ratioP1;P1;durP2;ratioP2;P2;SDS_P1;SDS_P2;PMS_P1;PMS_P2;Temp;Humidity;BMP_temperature;BMP_pressure;BME280_temperature;BME280_humidity;BME280_pressure;Samples;Min_cycle;Max_cycle;Signal;HPM_P1;HPM_P2
2023/07/21 00:02:20;;;;;;;15.52;4.10;;;;;;;24.00;40.89;93939.34;6190416;23;20000;-90
2023/07/21 00:04:45;;;;;;;14.63;4.50;;;;;;;24.20;40.75;93936.53;6189775;23;20318;-88
2023/07/21 00:07:13;;;;;;;20.90;4.43;;;;;;;24.81;38.47;93941.00;6190211;23;20001;-90
2023/07/21 00:09:38;;;;;;;17.60;3.80;;;;;;;24.55;38.81;93937.28;6165830;23;20031;-90
2023/07/21 00:12:04;;;;;;;15.90;4.43;;;;;;;24.53;38.23;93931.50;6165265;23;20428;-91
2023/07/21 00:14:37;;;;;;;11.77;3.78;;;;;;;24.39;40.03;93932.94;6190096;23;19992;-89
2023/07/21 00:17:05;;;;;;;16.88;4.15;;;;;;;24.71;38.23;93943.19;6190748;23;20004;-90
2023/07/21 00:19:31;;;;;;;19.50;4.40;;;;;;;24.77;38.63;93945.56;6189936;23;20004;-89
2023/07/21 00:21:56;;;;;;;14.30;3.83;;;;;;;24.40;40.60;93934.47;6165279;23;20059;-90
2023/07/21 00:24:24;;;;;;;13.30;4.53;;;;;;;24.41;39.79;93933.34;6165230;23;20063;-90
2023/07/21 00:27:02;;;;;;;;;;;;;;;;;;;;;
2023/07/21 00:29:39;;;;;;;;;;;;;;;;;;;;;
2023/07/21 00:32:07;;;;;;;14.23;3.50;;;;;;;24.28;39.47;93934.72;6192087;23;20087;-90
2023/07/21 00:34:33;;;;;;;11.50;4.18;;;;;;;24.34;39.85;93935.16;6164992;23;20091;-91
2023/07/21 00:39:44;;;;;;;14.07;4.10;;;;;;;24.22;39.87;93931.59;6216750;23;20043;-89
2023/07/21 00:42:13;;;;;;;10.30;4.30;;;;;;;24.12;40.06;93927.66;6165545;23;20457;-90
2023/07/21 00:44:38;;;;;;;10.88;4.38;;;;;;;24.00;40.18;93925.94;6189366;23;19996;-90
2023/07/21 00:47:04;;;;;;;10.82;4.13;;;;;;;23.97;40.38;93921.34;6215604;23;20007;-91
2023/07/21 00:49:41;;;;;;;;;;;;;;;;;;;;;
2023/07/21 00:52:09;;;;;;;22.13;4.70;;;;;;;24.07;39.37;93925.28;6191926;23;20061;-90
2023/07/21 00:54:35;;;;;;;17.20;4.45;;;;;;;24.08;39.96;93913.47;6215543;23;20001;-89
2023/07/21 00:57:00;;;;;;;20.75;4.07;;;;;;;24.23;39.50;93914.41;6189728;23;20425;-89
2023/07/21 00:59:26;;;;;;;11.48;3.75;;;;;;;24.28;38.91;93913.31;6165565;23;20004;-88
2023/07/21 01:01:51;;;;;;;21.10;4.25;;;;;;;24.29;39.37;93906.81;6165151;23;19997;-90
2023/07/21 01:04:19;;;;;;;12.27;3.63;;;;;;;24.20;39.40;93898.28;6164254;23;20024;-89
2023/07/21 01:06:47;;;;;;;17.63;4.13;;;;;;;24.21;39.36;93897.16;6189403;23;20459;-88
2023/07/21 01:09:13;;;;;;;11.45;4.15;;;;;;;24.29;39.28;93894.19;6190198;23;20432;-90
2023/07/21 01:11:44;;;;;;;15.05;4.05;;;;;;;24.28;38.93;93895.31;6215463;23;20001;-89
2023/07/21 01:14:09;;;;;;;15.75;4.47;;;;;;;24.28;39.69;93884.63;6165002;23;20074;-88
2023/07/21 01:16:38;;;;;;;13.30;4.07;;;;;;;24.29;39.32;93890.75;6189602;23;20005;-89
2023/07/21 01:19:17;;;;;;;16.77;3.88;;;;;;;24.31;40.28;93885.81;6190372;23;20453;-89
2023/07/21 01:21:48;;;;;;;11.43;4.00;;;;;;;24.40;40.40;93885.50;6190414;23;20007;-89
2023/07/21 01:24:42;;;;;;;14.57;4.40;;;;;;;24.30;41.23;93881.59;6189186;23;20008;-90
2023/07/21 01:27:08;;;;;;;11.60;4.10;;;;;;;24.37;40.14;93875.53;6134667;23;20154;-90
2023/07/21 01:29:34;;;;;;;14.48;4.03;;;;;;;24.32;40.20;93863.25;6164583;23;20016;-89
2023/07/21 01:32:01;;;;;;;20.15;4.38;;;;;;;24.22;41.24;93862.00;6189205;23;20024;-88
2023/07/21 01:34:29;;;;;;;17.02;4.28;;;;;;;24.32;41.03;93854.44;6164919;23;20306;-88
2023/07/21 01:36:54;;;;;;;13.93;4.45;;;;;;;24.38;41.46;93853.72;6189312;23;20006;-90
2023/07/21 01:39:20;;;;;;;18.35;4.57;;;;;;;24.42;42.11;93861.81;6164404;23;20027;-89
2023/07/21 01:41:46;;;;;;;20.48;5.45;;;;;;;24.42;42.10;93848.41;6189282;23;20027;-89
2023/07/21 01:44:12;;;;;;;22.15;5.38;;;;;;;24.39;42.97;93855.31;6163926;23;20005;-89
2023/07/21 01:46:41;;;;;;;17.13;4.88;;;;;;;24.37;43.55;93854.13;6165339;23;20004;-89
2023/07/21 01:49:09;;;;;;;22.75;4.85;;;;;;;24.47;43.62;93842.75;6190328;23;20000;-91
2023/07/21 01:51:35;;;;;;;18.67;5.25;;;;;;;24.49;43.91;93842.38;6164865;23;20000;-89
2023/07/21 01:54:05;;;;;;;18.00;5.13;;;;;;;24.34;44.58;93842.22;6164280;23;20056;-92
2023/07/21 01:56:34;;;;;;;16.70;5.13;;;;;;;24.46;44.77;93846.56;6164283;23;20005;-88
2023/07/21 01:59:04;;;;;;;20.27;5.25;;;;;;;24.26;45.51;93837.97;6164735;23;20295;-89
2023/07/21 02:01:34;;;;;;;18.63;5.35;;;;;;;24.07;46.38;93839.69;6189517;23;20395;-91
2023/07/21 02:04:03;;;;;;;20.10;5.13;;;;;;;24.24;47.02;93840.22;6164424;23;20422;-91
2023/07/21 02:06:30;;;;;;;20.27;5.03;;;;;;;24.33;47.10;93831.91;6164940;23;20027;-90
2023/07/21 02:09:06;;;;;;;;;;;;;;;;;;;;;
2023/07/21 02:11:34;;;;;;;23.52;5.75;;;;;;;24.17;48.34;93840.16;6191108;23;20087;-88
2023/07/21 02:13:59;;;;;;;19.08;5.85;;;;;;;24.32;48.68;93833.03;6189486;23;20001;-90
2023/07/21 02:16:27;;;;;;;27.48;5.80;;;;;;;24.30;49.13;93830.72;6164452;23;20004;-90
2023/07/21 02:18:56;;;;;;;22.95;5.63;;;;;;;24.22;50.27;93839.81;6164667;23;20019;-89
2023/07/21 02:21:21;;;;;;;28.33;6.10;;;;;;;24.22;51.02;93837.13;6189226;23;19997;-88
2023/07/21 02:23:47;;;;;;;21.58;5.13;;;;;;;24.24;52.21;93841.00;6188661;23;20047;-88
2023/07/21 02:26:23;;;;;;;22.63;5.65;;;;;;;24.41;52.63;93834.28;6189419;23;20009;-89
2023/07/21 02:28:48;;;;;;;24.20;5.68;;;;;;;24.28;54.51;93822.31;6166612;23;20310;-90
2023/07/21 02:31:16;;;;;;;21.85;5.78;;;;;;;24.37;54.83;93830.78;6164417;23;20012;-90
2023/07/21 02:33:43;;;;;;;23.42;5.85;;;;;;;24.31;55.94;93823.47;6188967;23;20004;-89
2023/07/21 02:36:09;;;;;;;20.70;6.15;;;;;;;24.14;57.97;93837.09;6165230;23;20008;-89
2023/07/21 02:38:36;;;;;;;26.08;6.18;;;;;;;24.17;59.57;93827.53;6188869;23;20000;-88
2023/07/21 02:41:05;;;;;;;30.15;6.35;;;;;;;24.25;60.81;93831.06;6165213;23;20003;-89
2023/07/21 02:43:33;;;;;;;28.60;6.20;;;;;;;24.21;62.36;93832.94;6164139;23;20001;-90
2023/07/21 02:45:59;;;;;;;25.45;5.60;;;;;;;24.09;63.78;93842.75;6189071;23;19996;-91
2023/07/21 02:48:24;;;;;;;37.00;6.68;;;;;;;24.07;64.85;93836.25;6164803;23;20001;-90
2023/07/21 02:50:57;;;;;;;20.55;6.47;;;;;;;24.00;66.72;93831.56;6163964;23;20315;-90
2023/07/21 02:53:25;;;;;;;29.50;5.97;;;;;;;23.92;68.55;93841.41;6190293;23;20437;-89
2023/07/21 02:55:53;;;;;;;26.75;6.43;;;;;;;23.83;70.16;93847.06;6190850;23;20295;-90
2023/07/21 02:58:21;;;;;;;27.88;6.55;;;;;;;23.83;71.90;93848.94;6191296;23;20001;-89
2023/07/21 03:00:46;;;;;;;26.30;5.63;;;;;;;23.96;72.41;93846.81;6166433;23;20494;-90
2023/07/21 03:03:14;;;;;;;29.95;6.82;;;;;;;23.84;74.67;93851.28;6189508;23;20004;-89
2023/07/21 03:05:48;;;;;;;28.80;6.20;;;;;;;23.87;75.16;93849.75;6190909;23;20000;-89
2023/07/21 03:08:14;;;;;;;25.15;6.00;;;;;;;23.82;77.45;93858.88;6167171;23;20036;-91
2023/07/21 03:10:42;;;;;;;22.48;6.88;;;;;;;23.92;77.87;93856.69;6165698;23;20000;-91
2023/07/21 03:13:17;;;;;;;30.52;6.90;;;;;;;23.98;78.39;93861.34;6165630;23;20008;-91
2023/07/21 03:15:43;;;;;;;32.50;6.88;;;;;;;23.74;82.39;93859.94;6192016;23;20007;-90
2023/07/21 03:18:10;;;;;;;28.45;7.00;;;;;;;23.71;83.78;93869.44;6190720;23;20004;-90
2023/07/21 03:20:36;;;;;;;33.88;7.57;;;;;;;23.73;83.02;93883.22;6166156;23;20008;-91
2023/07/21 03:23:01;;;;;;;25.60;6.65;;;;;;;23.80;83.20;93881.78;6190657;23;20004;-88
2023/07/21 03:25:30;;;;;;;22.23;6.38;;;;;;;23.96;80.72;93900.31;6190888;23;19996;-90
2023/07/21 03:27:55;;;;;;;21.00;6.88;;;;;;;23.80;82.14;93901.25;6165815;23;20004;-91
2023/07/21 03:30:21;;;;;;;32.22;7.00;;;;;;;23.69;86.12;93898.44;6165706;23;19996;-89
2023/07/21 03:32:54;;;;;;;28.65;6.70;;;;;;;23.50;85.88;93910.03;6216479;23;20005;-90
2023/07/21 03:35:32;;;;;;;32.33;6.97;;;;;;;23.71;82.39;93908.78;6167245;23;20000;-91
2023/07/21 03:38:00;;;;;;;27.17;6.65;;;;;;;23.77;83.98;93920.72;6167958;23;20000;-88
2023/07/21 03:40:39;;;;;;;28.15;6.78;;;;;;;23.79;83.29;93923.03;6216971;23;19997;-90
2023/07/21 03:43:17;;;;;;;;;;;;;;;;;;;;;
2023/07/21 03:45:45;;;;;;;23.77;6.13;;;;;;;23.29;88.45;93930.00;6192602;23;20384;-91
2023/07/21 03:48:18;;;;;;;24.13;6.45;;;;;;;22.88;96.69;93935.84;6166279;23;20000;-91
2023/07/21 03:50:46;;;;;;;22.98;8.20;;;;;;;22.51;100.00;93949.69;6167408;23;20091;-89
2023/07/21 03:53:16;;;;;;;20.63;7.00;;;;;;;22.28;100.00;93950.38;6165862;23;20023;-90
2023/07/21 03:55:44;;;;;;;26.08;8.77;;;;;;;22.16;100.00;93955.84;6166085;23;20012;-88
2023/07/21 03:58:09;;;;;;;23.67;8.02;;;;;;;22.13;100.00;93969.88;6166410;23;20001;-90
2023/07/21 04:00:37;;;;;;;24.05;8.05;;;;;;;21.96;100.00;93969.19;6190177;23;19996;-89
2023/07/21 04:03:12;;;;;;;;;;;;;;;;;;;;;
2023/07/21 04:05:38;;;;;;;22.00;7.78;;;;;;;21.89;100.00;93985.06;6192350;23;20079;-90
2023/07/21 04:08:14;;;;;;;;;;;;;;;;;;;;;
2023/07/21 04:10:49;;;;;;;24.52;8.60;;;;;;;21.69;100.00;93970.91;6192279;23;20071;-93
2023/07/21 04:13:15;;;;;;;15.35;7.50;;;;;;;21.70;100.00;93983.88;6165651;23;20009;-91
2023/07/21 04:15:50;;;;;;;;;;;;;;;;;;;;;
2023/07/21 04:18:16;;;;;;;22.38;9.88;;;;;;;21.29;100.00;94001.94;6192855;23;20071;-91
2023/07/21 04:20:42;;;;;;;21.08;8.63;;;;;;;20.87;100.00;94005.88;6165215;23;20008;-91
2023/07/21 04:23:09;;;;;;;24.42;8.13;;;;;;;20.97;100.00;94002.72;6165383;23;20079;-90
2023/07/21 04:25:37;;;;;;;25.30;10.50;;;;;;;21.00;100.00;94011.91;6165990;23;20004;-89
2023/07/21 04:28:05;;;;;;;26.83;11.05;;;;;;;20.76;100.00;94014.34;6190706;23;20067;-90
2023/07/21 04:30:34;;;;;;;30.63;11.13;;;;;;;20.84;100.00;94033.97;6166554;23;20338;-95
2023/07/21 04:33:12;;;;;;;;;;;;;;;;;;;;;
2023/07/21 04:35:51;;;;;;;19.50;9.27;;;;;;;21.07;100.00;94024.63;6193542;23;20384;-95
2023/07/21 04:41:55;;;;;;;28.40;11.40;;;;;;;21.53;100.00;94026.88;6096697;23;20500;-93
2023/07/21 04:44:51;;;;;;;;;;;;;;;;;;;;;
2023/07/21 04:51:38;;;;;;;26.00;11.75;;;;;;;21.23;100.00;94019.31;6071372;23;20039;-95
2023/07/21 04:54:11;;;;;;;34.80;14.15;;;;;;;21.16;100.00;94012.72;6069969;23;20011;-93
2023/07/21 04:56:55;;;;;;;26.73;12.82;;;;;;;21.19;100.00;94013.91;6185678;23;20005;-92
2023/07/21 04:59:20;;;;;;;40.60;15.32;;;;;;;21.25;100.00;94017.88;6168818;23;19997;-92
2023/07/21 05:01:59;;;;;;;;;;;;;;;;;;;;;
2023/07/21 05:04:44;;;;;;;34.20;15.80;;;;;;;21.27;100.00;94023.63;6104042;23;20029;-94
2023/07/21 05:07:10;;;;;;;29.83;10.98;;;;;;;20.91;100.00;94020.06;6102742;23;20010;-91
2023/07/21 05:09:35;;;;;;;36.83;13.65;;;;;;;21.35;100.00;94019.22;6166572;23;19996;-93
2023/07/21 05:18:46;;;;;;;29.08;14.20;;;;;;;21.68;100.00;94004.78;6068935;23;20002;-93
2023/07/21 05:21:15;;;;;;;39.40;15.50;;;;;;;21.64;100.00;94003.13;6166235;23;19996;-89
2023/07/21 05:23:43;;;;;;;29.73;14.35;;;;;;;21.84;100.00;94002.09;6164121;23;20009;-90
2023/07/21 05:26:15;;;;;;;34.13;13.90;;;;;;;21.89;100.00;94001.03;6190297;23;19997;-90
2023/07/21 05:28:43;;;;;;;29.50;13.00;;;;;;;22.23;100.00;94000.56;6190458;23;20004;-89
2023/07/21 05:31:19;;;;;;;25.95;12.95;;;;;;;22.55;100.00;94006.56;6166262;23;20322;-90
2023/07/21 05:33:45;;;;;;;28.30;12.50;;;;;;;22.27;100.00;94006.78;6166410;23;20005;-91
2023/07/21 05:36:12;;;;;;;23.42;10.40;;;;;;;22.59;100.00;94002.09;6189941;23;19996;-90
2023/07/21 05:38:41;;;;;;;20.77;10.15;;;;;;;22.91;100.00;93995.75;6189105;23;20027;-89
2023/07/21 05:41:11;;;;;;;24.80;10.23;;;;;;;22.72;100.00;93988.56;6189636;23;20357;-89
2023/07/21 05:43:36;;;;;;;23.73;9.80;;;;;;;23.26;100.00;94002.06;6189816;23;20000;-89
2023/07/21 05:46:03;;;;;;;23.80;10.07;;;;;;;23.58;100.00;93999.91;6189339;23;20011;-90
2023/07/21 05:48:28;;;;;;;27.98;10.05;;;;;;;23.46;100.00;93999.34;6215718;23;20000;-89
2023/07/21 05:50:55;;;;;;;33.05;11.88;;;;;;;23.75;100.00;93995.19;6189269;23;20035;-90
2023/07/21 05:53:20;;;;;;;25.88;10.88;;;;;;;24.07;100.00;93988.75;6163708;23;19992;-89
2023/07/21 05:55:50;;;;;;;27.83;10.30;;;;;;;23.81;100.00;93990.28;6189741;23;20000;-91
2023/07/21 05:58:25;;;;;;;21.92;9.75;;;;;;;24.09;100.00;93989.91;6164482;23;20013;-89
2023/07/21 06:01:11;;;;;;;29.52;10.05;;;;;;;23.85;100.00;93985.75;6190856;23;20378;-89
2023/07/21 06:03:44;;;;;;;22.85;8.68;;;;;;;24.18;100.00;93988.88;6189765;23;19997;-89
2023/07/21 06:06:10;;;;;;;25.50;10.38;;;;;;;23.58;100.00;93988.44;6191327;23;20004;-89
2023/07/21 06:08:55;;;;;;;;;;;;;;;;;;;;;
2023/07/21 06:11:31;;;;;;;20.95;9.43;;;;;;;24.19;100.00;93982.41;6191586;23;20076;-89
2023/07/21 06:14:06;;;;;;;;;;;;;;;;;;;;;
2023/07/21 06:16:47;;;;;;;;;;;;;;;;;;;;;
2023/07/21 06:19:18;;;;;;;18.17;9.70;;;;;;;24.62;100.00;93984.81;6215656;23;20020;-90
2023/07/21 06:21:56;;;;;;;;;;;;;;;;;;;;;
2023/07/21 06:24:29;;;;;;;25.23;8.75;;;;;;;24.04;100.00;93976.88;6190947;23;20437;-91
2023/07/21 06:27:05;;;;;;;;;;;;;;;;;;;;;
2023/07/21 06:29:49;;;;;;;20.33;8.85;;;;;;;24.69;100.00;93977.63;6193533;23;20092;-92
2023/07/21 06:32:20;;;;;;;21.77;9.05;;;;;;;24.32;100.00;93964.19;6166855;23;20015;-91
2023/07/21 06:34:50;;;;;;;21.65;8.38;;;;;;;24.79;100.00;93959.34;6191393;23;20004;-92
2023/07/21 06:37:16;;;;;;;22.65;9.32;;;;;;;24.56;100.00;93960.25;6217857;23;20039;-92
2023/07/21 06:39:54;;;;;;;;;;;;;;;;;;;;;
2023/07/21 06:42:44;;;;;;;20.05;8.52;;;;;;;24.54;100.00;93951.81;6193329;23;20381;-90
2023/07/21 06:45:19;;;;;;;;;;;;;;;;;;;;;
2023/07/21 06:48:02;;;;;;;;;;;;;;;;;;;;;
2023/07/21 06:50:41;;;;;;;;;;;;;;;;;;;;;
2023/07/21 06:53:07;;;;;;;21.70;8.38;;;;;;;25.32;100.00;93941.41;6193271;23;20083;-92
2023/07/21 06:55:42;;;;;;;19.73;7.68;;;;;;;25.04;100.00;93943.50;6166778;23;20016;-92
2023/07/21 06:58:19;;;;;;;;;;;;;;;;;;;;;
2023/07/21 07:00:46;;;;;;;17.50;7.72;;;;;;;25.25;100.00;93937.53;6193807;23;20028;-92
2023/07/21 07:03:19;;;;;;;19.75;7.63;;;;;;;25.57;100.00;93935.47;6166820;23;19996;-91
2023/07/21 07:05:52;;;;;;;37.80;8.98;;;;;;;25.73;100.00;93927.91;6191156;23;20004;-92
2023/07/21 07:08:24;;;;;;;28.30;8.48;;;;;;;25.17;100.00;93925.22;6167801;23;20004;-90
2023/07/21 07:10:52;;;;;;;24.58;7.88;;;;;;;25.47;100.00;93929.63;6191251;23;20405;-94
2023/07/21 07:13:18;;;;;;;25.63;8.02;;;;;;;25.82;100.00;93922.97;6191717;23;19997;-92
2023/07/21 07:15:52;;;;;;;27.95;7.43;;;;;;;25.98;100.00;93933.38;6167108;23;20028;-92
2023/07/21 07:18:22;;;;;;;19.15;6.88;;;;;;;26.16;100.00;93929.25;6167667;23;20051;-91
2023/07/21 07:20:50;;;;;;;26.10;7.43;;;;;;;26.11;100.00;93933.81;6166643;23;20310;-90
2023/07/21 07:23:16;;;;;;;21.63;6.10;;;;;;;26.04;100.00;93933.78;6192095;23;20004;-93
2023/07/21 07:25:53;;;;;;;32.15;7.30;;;;;;;26.14;100.00;93936.91;6168580;23;20095;-91
2023/07/21 07:28:20;;;;;;;23.20;6.53;;;;;;;26.13;100.00;93936.13;6166219;23;20007;-89
2023/07/21 07:30:48;;;;;;;24.67;6.90;;;;;;;26.43;100.00;93928.97;6190892;23;20004;-89
2023/07/21 07:33:14;;;;;;;22.08;6.43;;;;;;;26.62;100.00;93935.91;6190018;23;20007;-89
2023/07/21 07:35:50;;;;;;;38.35;6.95;;;;;;;26.49;100.00;93922.06;6165719;23;20008;-89
2023/07/21 07:38:24;;;;;;;23.80;7.97;;;;;;;26.21;100.00;93927.00;6189885;23;19997;-90
2023/07/21 07:40:50;;;;;;;23.10;7.28;;;;;;;26.34;100.00;93911.28;6190997;23;20001;-90
2023/07/21 07:43:15;;;;;;;25.33;6.47;;;;;;;26.66;100.00;93913.25;6165210;23;20083;-90
2023/07/21 07:45:41;;;;;;;36.85;7.13;;;;;;;27.58;100.00;93914.06;6189786;23;20001;-90
2023/07/21 07:48:09;;;;;;;24.95;7.22;;;;;;;27.59;100.00;93904.84;6190438;23;19997;-88
2023/07/21 07:50:39;;;;;;;20.10;7.05;;;;;;;27.94;100.00;93903.94;6166374;23;20001;-90
2023/07/21 07:53:06;;;;;;;20.65;7.03;;;;;;;27.73;100.00;93907.50;6216003;23;20489;-91
2023/07/21 07:55:36;;;;;;;29.85;6.68;;;;;;;27.59;95.10;93902.91;6216479;23;20004;-90
2023/07/21 07:58:03;;;;;;;24.30;6.30;;;;;;;26.98;100.00;93892.97;6216179;23;20322;-89
2023/07/21 08:00:29;;;;;;;21.83;6.57;;;;;;;26.65;100.00;93882.19;6190651;23;20008;-91
2023/07/21 08:02:55;;;;;;;20.38;6.85;;;;;;;26.91;100.00;93874.16;6189261;23;20357;-90
2023/07/21 08:05:21;;;;;;;16.73;7.35;;;;;;;27.14;100.00;93873.00;6216473;23;20047;-88
2023/07/21 08:07:54;;;;;;;23.65;7.38;;;;;;;26.79;100.00;93873.38;6190468;23;20346;-89
2023/07/21 08:10:19;;;;;;;21.92;6.70;;;;;;;27.60;100.00;93884.84;6191461;23;20034;-89
2023/07/21 08:12:44;;;;;;;19.52;6.95;;;;;;;28.12;100.00;93895.03;6164740;23;20015;-90
2023/07/21 08:15:10;;;;;;;10.75;6.10;;;;;;;28.47;100.00;93896.00;6189425;23;20007;-90
2023/07/21 08:17:39;;;;;;;25.38;6.70;;;;;;;28.72;100.00;93888.94;6189678;23;19997;-89
2023/07/21 08:20:05;;;;;;;18.23;7.03;;;;;;;27.40;100.00;93887.16;6216469;23;20008;-89
2023/07/21 08:22:33;;;;;;;22.55;7.88;;;;;;;27.35;100.00;93886.41;6189722;23;20063;-89
2023/07/21 08:24:59;;;;;;;17.73;6.25;;;;;;;27.62;100.00;93893.28;6165669;23;20012;-90
2023/07/21 08:27:26;;;;;;;16.92;6.00;;;;;;;27.62;100.00;93902.16;6189644;23;20012;-89
2023/07/21 08:29:52;;;;;;;23.63;6.88;;;;;;;27.56;100.00;93911.75;6190245;23;20001;-89
2023/07/21 08:32:17;;;;;;;13.63;5.82;;;;;;;27.61;100.00;93903.28;6216282;23;20050;-90
2023/07/21 08:34:42;;;;;;;17.92;6.25;;;;;;;27.49;100.00;93892.91;6214632;23;20030;-90
2023/07/21 08:37:08;;;;;;;25.20;7.05;;;;;;;25.78;100.00;93873.13;6214442;23;20004;-88
2023/07/21 08:39:33;;;;;;;28.02;7.60;;;;;;;25.30;100.00;93855.22;6188933;23;20000;-88
2023/07/21 08:41:59;;;;;;;24.13;7.40;;;;;;;25.26;100.00;93831.84;6189651;23;20000;-89
2023/07/21 08:44:26;;;;;;;22.05;7.75;;;;;;;24.67;100.00;93807.69;6188378;23;20410;-89
2023/07/21 08:46:51;;;;;;;23.73;7.75;;;;;;;25.85;100.00;93819.47;6188613;23;20054;-89
2023/07/21 08:49:20;;;;;;;24.48;8.27;;;;;;;25.54;100.00;93830.50;6215416;23;20000;-88
2023/07/21 08:51:46;;;;;;;29.08;8.35;;;;;;;25.48;100.00;93849.97;6189019;23;20064;-87
2023/07/21 08:54:13;;;;;;;23.42;8.02;;;;;;;25.41;100.00;93853.38;6188174;23;20001;-89
2023/07/21 08:56:48;;;;;;;24.67;7.10;;;;;;;26.08;100.00;93854.03;6215569;23;20356;-89
2023/07/21 08:59:22;;;;;;;24.25;7.60;;;;;;;26.22;100.00;93839.94;6189407;23;20314;-88
2023/07/21 09:01:50;;;;;;;19.05;7.22;;;;;;;26.39;100.00;93814.22;6165402;23;20001;-89
2023/07/21 09:07:44;;;;;;;28.92;7.25;;;;;;;28.27;100.00;93846.50;6163130;23;20023;-88
2023/07/21 09:10:51;;;;;;;22.88;6.47;;;;;;;28.93;100.00;93859.16;6188447;23;20414;-88
2023/07/21 09:14:00;;;;;;;18.45;6.22;;;;;;;28.48;100.00;93876.03;6163019;23;20063;-89
2023/07/21 09:16:27;;;;;;;19.73;6.78;;;;;;;28.37;100.00;93861.84;6165583;23;20001;-89
2023/07/21 09:18:53;;;;;;;18.42;6.50;;;;;;;28.42;100.00;93884.91;6188226;23;20477;-89
2023/07/21 09:21:20;;;;;;;18.10;6.53;;;;;;;27.57;100.00;93899.09;6183058;23;20070;-88
2023/07/21 09:23:47;;;;;;;17.88;6.30;;;;;;;27.20;100.00;93903.72;6188477;23;19997;-87
2023/07/21 09:26:15;;;;;;;23.77;6.68;;;;;;;27.49;97.52;93923.25;6164678;23;20008;-88
2023/07/21 09:28:45;;;;;;;16.13;5.40;;;;;;;27.32;89.17;93932.88;6189276;23;19997;-89
2023/07/21 09:31:12;;;;;;;17.63;6.38;;;;;;;26.53;100.00;93920.13;6164359;23;20040;-90
2023/07/21 09:33:42;;;;;;;16.98;6.72;;;;;;;26.77;97.00;93915.19;6188531;23;20075;-89
2023/07/21 09:36:08;;;;;;;15.38;5.63;;;;;;;27.15;83.57;93914.84;6215558;23;20007;-89
2023/07/21 09:38:35;;;;;;;12.35;5.00;;;;;;;27.23;93.06;93900.25;6215539;23;20001;-87
2023/07/21 09:41:02;;;;;;;15.25;5.50;;;;;;;26.90;76.84;93862.63;6189139;23;20008;-87
2023/07/21 09:43:29;;;;;;;14.48;4.90;;;;;;;26.65;73.94;93835.75;6188574;23;20000;-89
2023/07/21 09:45:54;;;;;;;19.52;5.93;;;;;;;25.55;100.00;93799.06;6164619;23;20004;-88
2023/07/21 09:48:21;;;;;;;17.35;5.82;;;;;;;25.70;100.00;93853.53;6164677;23;20004;-89
2023/07/21 09:50:47;;;;;;;14.73;5.60;;;;;;;25.86;100.00;93876.59;6189049;23;20409;-89
2023/07/21 09:53:18;;;;;;;20.30;5.93;;;;;;;26.06;91.38;93872.44;6164068;23;20411;-89
2023/07/21 09:55:44;;;;;;;17.65;5.30;;;;;;;26.18;94.86;93886.69;6165473;23;20004;-88
2023/07/21 09:58:12;;;;;;;26.65;5.43;;;;;;;26.51;86.56;93884.84;6164277;23;20011;-89
2023/07/21 10:00:41;;;;;;;16.10;5.30;;;;;;;26.05;88.62;93908.47;6164309;23;20005;-89
2023/07/21 10:03:07;;;;;;;12.18;5.05;;;;;;;25.96;82.37;93916.88;6166328;23;20000;-88
2023/07/21 10:05:35;;;;;;;10.95;4.93;;;;;;;26.11;87.09;93936.50;6166458;23;20112;-88
2023/07/21 10:08:03;;;;;;;12.30;4.90;;;;;;;25.58;83.55;93940.44;6217714;23;20008;-87
2023/07/21 10:10:29;;;;;;;22.55;5.40;;;;;;;24.90;93.77;93946.81;6191778;23;20000;-88
2023/07/21 10:12:55;;;;;;;15.95;5.10;;;;;;;24.56;99.20;93936.16;6190713;23;20050;-87
2023/07/21 10:15:27;;;;;;;16.70;5.10;;;;;;;24.70;100.00;93930.16;6166993;23;20004;-87
2023/07/21 10:18:10;;;;;;;14.70;5.80;;;;;;;24.99;100.00;93925.06;6217673;23;20000;-88
2023/07/21 10:20:42;;;;;;;11.73;5.22;;;;;;;25.20;100.00;93956.63;6167623;23;20000;-88
2023/07/21 10:23:10;;;;;;;18.17;5.97;;;;;;;24.90;100.00;93941.47;6216802;23;20299;-89
2023/07/21 10:25:46;;;;;;;19.50;5.20;;;;;;;25.25;95.62;93921.47;6167011;23;20001;-88
2023/07/21 10:28:15;;;;;;;23.30;6.03;;;;;;;25.21;93.27;93917.22;6167392;23;20009;-88
2023/07/21 10:30:41;;;;;;;16.73;5.60;;;;;;;25.62;90.55;93892.97;6167522;23;20268;-87
2023/07/21 10:33:19;;;;;;;16.73;4.90;;;;;;;26.44;85.42;93882.16;6190690;23;20012;-86
2023/07/21 10:35:49;;;;;;;17.58;6.18;;;;;;;27.51;86.72;93883.28;6166658;23;20028;-90
2023/07/21 10:38:15;;;;;;;19.30;5.40;;;;;;;27.69;72.59;93889.81;6165858;23;20402;-87
2023/07/21 10:40:41;;;;;;;15.40;5.35;;;;;;;28.01;75.52;93889.69;6190686;23;20004;-88
2023/07/21 10:43:07;;;;;;;24.67;5.20;;;;;;;28.26;79.45;93888.06;6165277;23;20059;-87
2023/07/21 10:45:32;;;;;;;19.88;5.32;;;;;;;28.13;78.59;93887.72;6191156;23;20004;-90
2023/07/21 10:48:12;;;;;;;20.60;5.68;;;;;;;27.90;76.74;93891.66;6166072;23;20088;-90
2023/07/21 10:51:11;;;;;;;14.90;5.45;;;;;;;28.24;81.87;93891.16;6190573;23;20005;-88
2023/07/21 10:53:37;;;;;;;14.55;5.60;;;;;;;28.48;91.75;93888.72;6111278;23;20304;-88
2023/07/21 10:56:07;;;;;;;20.42;5.63;;;;;;;28.29;93.40;93898.84;6190572;23;20007;-88
2023/07/21 10:58:33;;;;;;;18.00;5.88;;;;;;;28.49;93.38;93909.09;6168189;23;20004;-89
2023/07/21 11:01:12;;;;;;;;;;;;;;;;;;;;;
2023/07/21 11:03:49;;;;;;;15.63;5.22;;;;;;;28.57;70.58;93912.53;6186561;23;20039;-90
2023/07/21 11:06:17;;;;;;;17.50;5.90;;;;;;;28.50;74.61;93924.09;6145288;23;20031;-89
2023/07/21 11:08:45;;;;;;;19.92;5.70;;;;;;;28.70;74.89;93929.75;6191361;23;20000;-91
2023/07/21 11:11:21;;;;;;;;;;;;;;;;;;;;;
2023/07/21 11:13:57;;;;;;;;;;;;;;;;;;;;;
2023/07/21 11:16:33;;;;;;;;;;;;;;;;;;;;;
2023/07/21 11:19:12;;;;;;;;;;;;;;;;;;;;;
2023/07/21 11:21:40;;;;;;;14.45;5.82;;;;;;;28.38;80.93;93949.56;6193115;23;20111;-90
2023/07/21 11:24:24;;;;;;;;;;;;;;;;;;;;;
2023/07/21 11:27:04;;;;;;;;;;;;;;;;;;;;;
2023/07/21 11:32:36;;;;;;;21.88;6.35;;;;;;;28.73;95.62;93974.03;6194814;23;20015;-86
2023/07/21 11:35:45;;;;;;;;;;;;;;;;;;;;;
2023/07/21 11:38:10;;;;;;;;;;;;;;;;;;;;;
2023/07/21 11:40:45;;;;;;;;;;;;;;;;;;;;;
2023/07/21 11:43:25;;;;;;;;;;;;;;;;;;;;;
2023/07/21 11:46:09;;;;;;;;;;;;;;;;;;;;;
2023/07/21 11:48:48;;;;;;;;;;;;;;;;;;;;;
2023/07/21 11:51:24;;;;;;;;;;;;;;;;;;;;;
2023/07/21 11:54:02;;;;;;;;;;;;;;;;;;;;;
2023/07/21 11:56:40;;;;;;;16.42;5.55;;;;;;;27.92;77.56;93992.41;6192013;23;20063;-87
2023/07/21 11:59:09;;;;;;;20.00;5.93;;;;;;;27.76;80.41;94005.50;6165985;23;20083;-88
2023/07/21 12:01:38;;;;;;;22.00;6.28;;;;;;;27.85;84.81;93988.97;6190638;23;20063;-88
2023/07/21 12:04:22;;;;;;;24.83;6.45;;;;;;;27.12;87.39;94004.34;6165198;23;20000;-87
2023/07/21 12:06:48;;;;;;;20.35;6.18;;;;;;;26.73;98.14;94000.41;6168787;23;19997;-87
2023/07/21 12:09:20;;;;;;;32.70;6.97;;;;;;;26.82;95.61;93998.91;6189843;23;20404;-87
2023/07/21 12:11:46;;;;;;;17.17;6.30;;;;;;;26.46;90.03;93984.59;6191012;23;20311;-86
2023/07/21 12:14:27;;;;;;;19.17;5.57;;;;;;;26.56;100.00;93985.78;6164847;23;20050;-87
2023/07/21 12:16:56;;;;;;;18.70;5.95;;;;;;;26.63;92.67;93991.94;6167579;23;20012;-87
2023/07/21 12:19:35;;;;;;;;;;;;;;;;;;;;;
2023/07/21 12:22:13;;;;;;;;;;;;;;;;;;;;;
2023/07/21 12:24:49;;;;;;;;;;;;;;;;;;;;;
2023/07/21 12:27:17;;;;;;;14.73;5.82;;;;;;;26.57;90.24;93990.00;6191750;23;20024;-89
2023/07/21 12:29:49;;;;;;;25.00;5.63;;;;;;;26.09;89.70;93991.72;6190040;23;20071;-88
2023/07/21 12:32:25;;;;;;;;;;;;;;;;;;;;;
2023/07/21 12:34:51;;;;;;;12.73;5.88;;;;;;;27.05;86.14;93980.91;6191182;23;20374;-88
2023/07/21 12:37:19;;;;;;;13.27;5.82;;;;;;;27.33;84.44;93982.84;6209892;23;20016;-87
2023/07/21 12:39:46;;;;;;;14.52;5.75;;;;;;;27.08;85.75;93977.44;6189309;23;19993;-87
2023/07/21 12:42:11;;;;;;;22.80;6.20;;;;;;;27.27;89.09;93989.75;6190005;23;20079;-87
2023/07/21 12:44:37;;;;;;;24.88;6.50;;;;;;;26.95;87.70;93959.00;6164574;23;20448;-88
2023/07/21 12:47:07;;;;;;;17.45;5.53;;;;;;;27.28;91.98;93961.72;6189727;23;20100;-87
2023/07/21 12:49:35;;;;;;;15.00;6.32;;;;;;;26.76;89.40;93968.19;6189946;23;19996;-88
2023/07/21 12:52:10;;;;;;;20.70;6.63;;;;;;;26.91;84.09;93960.94;6189795;23;20087;-88